Home > Products > Valid Products > TAF

000
FTUS44 KOUN 142330
TAFGAG
TAF
KGAG 142330Z 1500/1524 18017G24KT P6SM SCT120
     FM150400 19014KT P6SM FEW050 BKN120
     FM151700 22012KT P6SM SCT050 BKN100 PROB30 1520/1524 6SM -SHRA
      BKN050=



000
FTUS44 KOUN 142330
TAFOKC
TAF
KOKC 142330Z 1500/1524 18009KT P6SM -RA SCT060 BKN120
     FM150500 18008KT P6SM BKN100
     FM151500 21012KT P6SM BKN080
     FM152000 20010KT P6SM SCT040 BKN080 PROB30 1520/1524 -SHRA=



000
FTUS44 KOUN 142330
TAFOUN
TAF
KOUN 142330Z 1500/1524 17008KT P6SM -RA SCT060 BKN120
     FM150500 18008KT P6SM BKN100
     FM151500 21012KT P6SM BKN080
     FM152000 20010KT P6SM SCT040 BKN080 PROB30 1520/1524 -SHRA=



000
FTUS44 KOUN 142330
TAFPNC
TAF
KPNC 142330Z 1500/1524 18008KT P6SM FEW080 BKN150
     FM151500 20013KT P6SM BKN080
     FM152100 25010KT P6SM SCT050 BKN080 PROB30 1521/1524 6SM -SHRA
      BKN050=



000
FTUS44 KOUN 142330
TAFWWR
TAF
KWWR 142330Z 1500/1524 19017G24KT P6SM SCT120
     FM150400 19014KT P6SM FEW050 BKN120
     FM151700 22012KT P6SM SCT050 BKN100 PROB30 1520/1524 6SM -SHRA
      BKN050=



000
FTUS44 KOUN 142330
TAFHBR
TAF
KHBR 142330Z 1500/1524 19012KT P6SM -RA SCT040 BKN110
     FM150500 19009KT P6SM BKN100
     FM151500 21012KT P6SM SCT050 BKN100 PROB30 1520/1524 6SM -SHRA
      BKN050=



000
FTUS44 KOUN 142330
TAFSPS
TAF
KSPS 142330Z 1500/1524 17007KT P6SM SCT070 BKN120
     FM151500 19009KT P6SM SCT050 BKN100=



000
FTUS44 KOUN 142330
TAFLAW
TAF
KLAW 142330Z 1500/1524 17008KT P6SM SCT070 BKN120
      TEMPO 1500/1504 -RA
     FM151500 19010KT P6SM SCT050 BKN100
     FM152100 16008KT P6SM SCT050 BKN080 PROB30 1521/1524 6SM -SHRA
      BKN050=



000
FTUS44 KOUN 142330
TAFWWR
TAF
KWWR 142330Z 1500/1524 19017G24KT P6SM SCT120
     FM150400 19014KT P6SM FEW050 BKN120
     FM151700 22012KT P6SM SCT050 BKN100 PROB30 1520/1524 6SM -SHRA
      BKN050=



000
FTUS44 KOUN 142330
TAFOKC
TAF
KOKC 142330Z 1500/1524 18009KT P6SM -RA SCT060 BKN120
     FM150500 18008KT P6SM BKN100
     FM151500 21012KT P6SM BKN080
     FM152000 20010KT P6SM SCT040 BKN080 PROB30 1520/1524 -SHRA=



000
FTUS44 KOUN 142330
TAFSPS
TAF
KSPS 142330Z 1500/1524 17007KT P6SM SCT070 BKN120
     FM151500 19009KT P6SM SCT050 BKN100=



000
FTUS44 KOUN 142330
TAFGAG
TAF
KGAG 142330Z 1500/1524 18017G24KT P6SM SCT120
     FM150400 19014KT P6SM FEW050 BKN120
     FM151700 22012KT P6SM SCT050 BKN100 PROB30 1520/1524 6SM -SHRA
      BKN050=



000
FTUS44 KOUN 142330
TAFLAW
TAF
KLAW 142330Z 1500/1524 17008KT P6SM SCT070 BKN120
      TEMPO 1500/1504 -RA
     FM151500 19010KT P6SM SCT050 BKN100
     FM152100 16008KT P6SM SCT050 BKN080 PROB30 1521/1524 6SM -SHRA
      BKN050=



000
FTUS44 KOUN 142330
TAFOUN
TAF
KOUN 142330Z 1500/1524 17008KT P6SM -RA SCT060 BKN120
     FM150500 18008KT P6SM BKN100
     FM151500 21012KT P6SM BKN080
     FM152000 20010KT P6SM SCT040 BKN080 PROB30 1520/1524 -SHRA=



000
FTUS44 KOUN 142330
TAFHBR
TAF
KHBR 142330Z 1500/1524 19012KT P6SM -RA SCT040 BKN110
     FM150500 19009KT P6SM BKN100
     FM151500 21012KT P6SM SCT050 BKN100 PROB30 1520/1524 6SM -SHRA
      BKN050=



000
FTUS44 KOUN 142330
TAFPNC
TAF
KPNC 142330Z 1500/1524 18008KT P6SM FEW080 BKN150
     FM151500 20013KT P6SM BKN080
     FM152100 25010KT P6SM SCT050 BKN080 PROB30 1521/1524 6SM -SHRA
      BKN050=



000
FTUS44 KOUN 141733
TAFOUN
TAF
KOUN 141733Z 1418/1518 18010KT P6SM FEW022 BKN200
     FM150400 18007KT P6SM VCSH FEW050 BKN100=



000
FTUS44 KOUN 141733
TAFHBR
TAF
KHBR 141733Z 1418/1518 19014KT P6SM VCSH SCT040 BKN120
     FM151500 23012KT P6SM SCT050 BKN250=



000
FTUS44 KOUN 141733
TAFWWR
TAF
KWWR 141733Z 1418/1518 19018G27KT P6SM FEW120 BKN200
     FM150000 19014KT P6SM FEW050 BKN120=



000
FTUS44 KOUN 141733
TAFLAW
TAF
KLAW 141733Z 1418/1518 17008KT P6SM VCSH SCT050 BKN120
     FM151600 19008KT P6SM SCT050 BKN250=



000
FTUS44 KOUN 141733
TAFGAG
TAF
KGAG 141733Z 1418/1518 19018G27KT P6SM FEW120 BKN200
     FM150000 19014KT P6SM FEW050 BKN120=



000
FTUS44 KOUN 141733
TAFSPS
TAF
KSPS 141733Z 1418/1518 17007KT P6SM SCT050 BKN150=



000
FTUS44 KOUN 141733
TAFOKC
TAF
KOKC 141733Z 1418/1518 18009KT P6SM FEW022 BKN200
     FM150400 18007KT P6SM VCSH FEW050 BKN100=



000
FTUS44 KOUN 141733
TAFHBR
TAF
KHBR 141733Z 1418/1518 19014KT P6SM VCSH SCT040 BKN120
     FM151500 23012KT P6SM SCT050 BKN250=



000
FTUS44 KOUN 141733
TAFSPS
TAF
KSPS 141733Z 1418/1518 17007KT P6SM SCT050 BKN150=



000
FTUS44 KOUN 141733
TAFOUN
TAF
KOUN 141733Z 1418/1518 18010KT P6SM FEW022 BKN200
     FM150400 18007KT P6SM VCSH FEW050 BKN100=



000
FTUS44 KOUN 141733
TAFLAW
TAF
KLAW 141733Z 1418/1518 17008KT P6SM VCSH SCT050 BKN120
     FM151600 19008KT P6SM SCT050 BKN250=



000
FTUS44 KOUN 141733
TAFGAG
TAF
KGAG 141733Z 1418/1518 19018G27KT P6SM FEW120 BKN200
     FM150000 19014KT P6SM FEW050 BKN120=



000
FTUS44 KOUN 141733
TAFPNC
TAF
KPNC 141733Z 1418/1518 18008KT P6SM FEW120 SCT250=



000
FTUS44 KOUN 141733
TAFPNC
TAF
KPNC 141733Z 1418/1518 18008KT P6SM FEW120 SCT250=



000
FTUS44 KOUN 141733
TAFOKC
TAF
KOKC 141733Z 1418/1518 18009KT P6SM FEW022 BKN200
     FM150400 18007KT P6SM VCSH FEW050 BKN100=



000
FTUS44 KOUN 141733
TAFWWR
TAF
KWWR 141733Z 1418/1518 19018G27KT P6SM FEW120 BKN200
     FM150000 19014KT P6SM FEW050 BKN120=



000
FTUS44 KOUN 141139
TAFSPS
TAF
KSPS 141139Z 1412/1512 18011KT P6SM SCT050 BKN100
     FM150100 14007KT P6SM OVC080=



000
FTUS44 KOUN 141139
TAFSPS
TAF
KSPS 141139Z 1412/1512 18011KT P6SM SCT050 BKN100
     FM150100 14007KT P6SM OVC080=



000
FTUS44 KOUN 141139
TAFPNC
TAF
KPNC 141139Z 1412/1512 17010KT P6SM SCT060 SCT250
      TEMPO 1412/1415 OVC060
     FM150400 16008KT P6SM SCT030 BKN100=



000
FTUS44 KOUN 141139
TAFOUN
TAF
KOUN 141139Z 1412/1512 17010KT P6SM BKN100
      TEMPO 1413/1417 BKN025
     FM150100 17007KT P6SM OVC060 PROB30 1508/1512 -RA=



000
FTUS44 KOUN 141139
TAFHBR
TAF
KHBR 141139Z 1412/1512 18012KT P6SM BKN100
     FM141800 20015G23KT P6SM SCT040 BKN250
     FM150100 18012KT P6SM OVC080 PROB30 1504/1510 5SM -SHRA=



000
FTUS44 KOUN 141139
TAFLAW
TAF
KLAW 141139Z 1412/1512 VRB03KT P6SM BKN100
     FM141600 19012KT P6SM SCT050 BKN100
     FM150100 15008KT P6SM OVC080=



000
FTUS44 KOUN 141139
TAFWWR
TAF
KWWR 141139Z 1412/1512 18012KT P6SM BKN012
     FM141600 19018G27KT P6SM SCT040 BKN250
     FM150300 18014KT P6SM BKN120=



000
FTUS44 KOUN 141139
TAFGAG
TAF
KGAG 141139Z 1412/1512 18012KT P6SM BKN012
     FM141600 19018G27KT P6SM SCT040 BKN250
     FM150300 18014KT P6SM BKN120=



000
FTUS44 KOUN 141139
TAFLAW
TAF
KLAW 141139Z 1412/1512 VRB03KT P6SM BKN100
     FM141600 19012KT P6SM SCT050 BKN100
     FM150100 15008KT P6SM OVC080=



000
FTUS44 KOUN 141139
TAFOKC
TAF
KOKC 141139Z 1412/1512 18012KT P6SM BKN100
      TEMPO 1413/1417 BKN025
     FM150100 17008KT P6SM OVC060 PROB30 1508/1512 -RA=



000
FTUS44 KOUN 140528
TAFGAG
TAF
KGAG 140528Z 1406/1506 16010KT P6SM SCT120 BKN250
     FM141400 19014G21KT P6SM SCT025 BKN200
     FM141700 19017G25KT P6SM SCT040 BKN100=



000
FTUS44 KOUN 140528
TAFOUN
TAF
KOUN 140528Z 1406/1506 14005KT P6SM SCT120 BKN250
     FM141400 17009KT P6SM BKN035
     FM141900 18012KT P6SM SCT040 BKN080=



000
FTUS44 KOUN 140528
TAFHBR
TAF
KHBR 140528Z 1406/1506 17009KT P6SM SCT120 BKN250
     FM141300 17011KT P6SM BKN035
     FM141800 19014G23KT P6SM SCT040 BKN100
     FM150100 18012KT P6SM BKN080=



000
FTUS44 KOUN 140528
TAFSPS
TAF
KSPS 140528Z 1406/1506 16005KT P6SM SCT120 BKN250
     FM141200 16008KT P6SM BKN027
     FM141700 18011KT P6SM SCT040 BKN080=



000
FTUS44 KOUN 140528
TAFPNC
TAF
KPNC 140528Z 1406/1506 13005KT P6SM BKN060 BKN250
     FM141500 16010KT P6SM SCT035 BKN250
     FM141900 17013KT P6SM SCT040 BKN100=



000
FTUS44 KOUN 140528
TAFLAW
TAF
KLAW 140528Z 1406/1506 16005KT P6SM SCT120 BKN250
     FM141300 16008KT P6SM BKN035
     FM141800 18012KT P6SM SCT040 BKN080=



000
FTUS44 KOUN 140528
TAFOKC
TAF
KOKC 140528Z 1406/1506 15005KT P6SM SCT120 BKN250
     FM141400 17009KT P6SM BKN035
     FM141900 18012KT P6SM SCT040 BKN080=



000
FTUS44 KOUN 140528
TAFWWR
TAF
KWWR 140528Z 1406/1506 16009KT P6SM SCT120 BKN250
     FM141400 19014G20KT P6SM SCT025 BKN200
     FM141700 19017G25KT P6SM SCT040 BKN100=



000
FTUS44 KOUN 140528
TAFOUN
TAF
KOUN 140528Z 1406/1506 14005KT P6SM SCT120 BKN250
     FM141400 17009KT P6SM BKN035
     FM141900 18012KT P6SM SCT040 BKN080=



000
FTUS44 KOUN 140528
TAFOKC
TAF
KOKC 140528Z 1406/1506 15005KT P6SM SCT120 BKN250
     FM141400 17009KT P6SM BKN035
     FM141900 18012KT P6SM SCT040 BKN080=



000
FTUS44 KOUN 140528
TAFWWR
TAF
KWWR 140528Z 1406/1506 16009KT P6SM SCT120 BKN250
     FM141400 19014G20KT P6SM SCT025 BKN200
     FM141700 19017G25KT P6SM SCT040 BKN100=



000
FTUS44 KOUN 140528
TAFLAW
TAF
KLAW 140528Z 1406/1506 16005KT P6SM SCT120 BKN250
     FM141300 16008KT P6SM BKN035
     FM141800 18012KT P6SM SCT040 BKN080=



000
FTUS44 KOUN 140528
TAFGAG
TAF
KGAG 140528Z 1406/1506 16010KT P6SM SCT120 BKN250
     FM141400 19014G21KT P6SM SCT025 BKN200
     FM141700 19017G25KT P6SM SCT040 BKN100=



000
FTUS44 KOUN 140528
TAFHBR
TAF
KHBR 140528Z 1406/1506 17009KT P6SM SCT120 BKN250
     FM141300 17011KT P6SM BKN035
     FM141800 19014G23KT P6SM SCT040 BKN100
     FM150100 18012KT P6SM BKN080=



000
FTUS44 KOUN 140528
TAFPNC
TAF
KPNC 140528Z 1406/1506 13005KT P6SM BKN060 BKN250
     FM141500 16010KT P6SM SCT035 BKN250
     FM141900 17013KT P6SM SCT040 BKN100=



000
FTUS44 KOUN 140528
TAFSPS
TAF
KSPS 140528Z 1406/1506 16005KT P6SM SCT120 BKN250
     FM141200 16008KT P6SM BKN027
     FM141700 18011KT P6SM SCT040 BKN080=



000
FTUS44 KOUN 132325
TAFOUN
TAF
KOUN 132325Z 1400/1424 15005KT P6SM SCT120 BKN250
     FM141400 17009KT P6SM BKN035
     FM141900 18012KT P6SM SCT040 BKN100=



000
FTUS44 KOUN 132325
TAFOKC
TAF
KOKC 132325Z 1400/1424 15005KT P6SM SCT120 BKN250
     FM141400 17009KT P6SM BKN035
     FM141900 18012KT P6SM SCT040 BKN100=



000
FTUS44 KOUN 132325
TAFWWR
TAF
KWWR 132325Z 1400/1424 16009KT P6SM SCT120 BKN250
     FM141400 19014G20KT P6SM SCT025 BKN200
     FM141800 19016G24KT P6SM SCT040 BKN100=



000
FTUS44 KOUN 132325
TAFGAG
TAF
KGAG 132325Z 1400/1424 16010KT P6SM SCT120 BKN250
     FM141400 19014G21KT P6SM SCT025 BKN200
     FM141800 19016G24KT P6SM SCT040 BKN100=



000
FTUS44 KOUN 132325
TAFHBR
TAF
KHBR 132325Z 1400/1424 14007KT P6SM SCT120 BKN250
     FM141300 17011KT P6SM BKN035
     FM141800 19014G23KT P6SM SCT040 BKN100=



000
FTUS44 KOUN 132325
TAFPNC
TAF
KPNC 132325Z 1400/1424 13005KT P6SM FEW120 BKN250
     FM141500 16009KT P6SM SCT035 BKN250
     FM142000 17013KT P6SM SCT040 BKN120=



000
FTUS44 KOUN 132325
TAFLAW
TAF
KLAW 132325Z 1400/1424 13005KT P6SM SCT120 BKN250
     FM141300 16008KT P6SM BKN035
     FM141800 18012KT P6SM SCT040 BKN100=



000
FTUS44 KOUN 132325
TAFSPS
TAF
KSPS 132325Z 1400/1424 13005KT P6SM SCT120 BKN250
     FM141200 16008KT P6SM BKN027
     FM141700 18010KT P6SM SCT040 BKN100=



000
FTUS44 KOUN 132325
TAFSPS
TAF
KSPS 132325Z 1400/1424 13005KT P6SM SCT120 BKN250
     FM141200 16008KT P6SM BKN027
     FM141700 18010KT P6SM SCT040 BKN100=



000
FTUS44 KOUN 132325
TAFWWR
TAF
KWWR 132325Z 1400/1424 16009KT P6SM SCT120 BKN250
     FM141400 19014G20KT P6SM SCT025 BKN200
     FM141800 19016G24KT P6SM SCT040 BKN100=



000
FTUS44 KOUN 132325
TAFHBR
TAF
KHBR 132325Z 1400/1424 14007KT P6SM SCT120 BKN250
     FM141300 17011KT P6SM BKN035
     FM141800 19014G23KT P6SM SCT040 BKN100=



000
FTUS44 KOUN 132325
TAFOKC
TAF
KOKC 132325Z 1400/1424 15005KT P6SM SCT120 BKN250
     FM141400 17009KT P6SM BKN035
     FM141900 18012KT P6SM SCT040 BKN100=



000
FTUS44 KOUN 132325
TAFPNC
TAF
KPNC 132325Z 1400/1424 13005KT P6SM FEW120 BKN250
     FM141500 16009KT P6SM SCT035 BKN250
     FM142000 17013KT P6SM SCT040 BKN120=



000
FTUS44 KOUN 132325
TAFLAW
TAF
KLAW 132325Z 1400/1424 13005KT P6SM SCT120 BKN250
     FM141300 16008KT P6SM BKN035
     FM141800 18012KT P6SM SCT040 BKN100=



000
FTUS44 KOUN 132325
TAFGAG
TAF
KGAG 132325Z 1400/1424 16010KT P6SM SCT120 BKN250
     FM141400 19014G21KT P6SM SCT025 BKN200
     FM141800 19016G24KT P6SM SCT040 BKN100=



000
FTUS44 KOUN 132325
TAFOUN
TAF
KOUN 132325Z 1400/1424 15005KT P6SM SCT120 BKN250
     FM141400 17009KT P6SM BKN035
     FM141900 18012KT P6SM SCT040 BKN100=



000
FTUS44 KOUN 131731
TAFHBR
TAF
KHBR 131731Z 1318/1418 08006KT P6SM FEW024 BKN250
     FM132000 14007KT P6SM BKN250
     FM141300 17011KT P6SM BKN035=



000
FTUS44 KOUN 131731
TAFPNC
TAF
KPNC 131731Z 1318/1418 13005KT P6SM SCT250=



000
FTUS44 KOUN 131731
TAFWWR
TAF
KWWR 131731Z 1318/1418 15008KT P6SM SCT028 BKN250
     FM141500 18013G20KT P6SM SCT025 BKN200=



000
FTUS44 KOUN 131731
TAFGAG
TAF
KGAG 131731Z 1318/1418 15008KT P6SM SCT028 BKN250
     FM141500 18013G20KT P6SM SCT025 BKN200=



000
FTUS44 KOUN 131731
TAFOKC
TAF
KOKC 131731Z 1318/1418 04007KT P6SM BKN016
     FM131900 06006KT P6SM FEW016 BKN250
     FM140000 15005KT P6SM SCT100 BKN250
     FM141500 17009KT P6SM BKN035=



000
FTUS44 KOUN 131731
TAFOUN
TAF
KOUN 131731Z 1318/1418 05006KT P6SM BKN018
     FM131900 07006KT P6SM FEW016 BKN250
     FM140000 15005KT P6SM SCT100 BKN250
     FM141500 17009KT P6SM BKN035=



000
FTUS44 KOUN 131731
TAFSPS
TAF
KSPS 131731Z 1318/1418 05010KT P6SM BKN022
     FM131900 07006KT P6SM FEW027 BKN250
     FM140000 13005KT P6SM FEW027 BKN250
     FM141200 16008KT P6SM BKN027=



000
FTUS44 KOUN 131731
TAFGAG
TAF
KGAG 131731Z 1318/1418 15008KT P6SM SCT028 BKN250
     FM141500 18013G20KT P6SM SCT025 BKN200=



000
FTUS44 KOUN 131731
TAFHBR
TAF
KHBR 131731Z 1318/1418 08006KT P6SM FEW024 BKN250
     FM132000 14007KT P6SM BKN250
     FM141300 17011KT P6SM BKN035=



000
FTUS44 KOUN 131731
TAFOUN
TAF
KOUN 131731Z 1318/1418 05006KT P6SM BKN018
     FM131900 07006KT P6SM FEW016 BKN250
     FM140000 15005KT P6SM SCT100 BKN250
     FM141500 17009KT P6SM BKN035=



000
FTUS44 KOUN 131731
TAFLAW
TAF
KLAW 131731Z 1318/1418 06007KT P6SM SCT023 BKN250
     FM132300 13005KT P6SM SCT023 BKN250
     FM141300 16008KT P6SM BKN035=



000
FTUS44 KOUN 131731
TAFOKC
TAF
KOKC 131731Z 1318/1418 04007KT P6SM BKN016
     FM131900 06006KT P6SM FEW016 BKN250
     FM140000 15005KT P6SM SCT100 BKN250
     FM141500 17009KT P6SM BKN035=



000
FTUS44 KOUN 131731
TAFSPS
TAF
KSPS 131731Z 1318/1418 05010KT P6SM BKN022
     FM131900 07006KT P6SM FEW027 BKN250
     FM140000 13005KT P6SM FEW027 BKN250
     FM141200 16008KT P6SM BKN027=



000
FTUS44 KOUN 131731
TAFLAW
TAF
KLAW 131731Z 1318/1418 06007KT P6SM SCT023 BKN250
     FM132300 13005KT P6SM SCT023 BKN250
     FM141300 16008KT P6SM BKN035=



000
FTUS44 KOUN 131731
TAFWWR
TAF
KWWR 131731Z 1318/1418 15008KT P6SM SCT028 BKN250
     FM141500 18013G20KT P6SM SCT025 BKN200=



000
FTUS44 KOUN 131731
TAFPNC
TAF
KPNC 131731Z 1318/1418 13005KT P6SM SCT250=



000
FTUS44 KOUN 131459 AAA
TAFSPS
TAF AMD
KSPS 131459Z 1315/1412 04012KT P6SM OVC020
     FM131700 06008KT P6SM OVC035
     FM140000 15009KT P6SM SCT050 BKN100=



000
FTUS44 KOUN 131459 AAA
TAFSPS
TAF AMD
KSPS 131459Z 1315/1412 04012KT P6SM OVC020
     FM131700 06008KT P6SM OVC035
     FM140000 15009KT P6SM SCT050 BKN100=



000
FTUS44 KOUN 131458 AAA
TAFLAW
TAF AMD
KLAW 131458Z 1315/1412 05013KT P6SM OVC025
     FM132000 12008KT P6SM SCT035 BKN120
     FM132300 15007KT P6SM SCT025 BKN250=



000
FTUS44 KOUN 131458 AAA
TAFLAW
TAF AMD
KLAW 131458Z 1315/1412 05013KT P6SM OVC025
     FM132000 12008KT P6SM SCT035 BKN120
     FM132300 15007KT P6SM SCT025 BKN250=



000
FTUS44 KOUN 131457 AAA
TAFHBR
TAF AMD
KHBR 131457Z 1315/1412 05012KT P6SM OVC025
     FM131700 14008KT P6SM SCT035 BKN120
     FM132300 16010KT P6SM SCT025 BKN250=



000
FTUS44 KOUN 131457 AAA
TAFHBR
TAF AMD
KHBR 131457Z 1315/1412 05012KT P6SM OVC025
     FM131700 14008KT P6SM SCT035 BKN120
     FM132300 16010KT P6SM SCT025 BKN250=



000
FTUS44 KOUN 131455 AAB
TAFOUN
TAF AMD
KOUN 131455Z 1315/1412 04013KT P6SM OVC018
     FM131800 07009KT P6SM SCT035 SCT250
     FM140000 15005KT P6SM SCT100 BKN250=



000
FTUS44 KOUN 131455 AAB
TAFOUN
TAF AMD
KOUN 131455Z 1315/1412 04013KT P6SM OVC018
     FM131800 07009KT P6SM SCT035 SCT250
     FM140000 15005KT P6SM SCT100 BKN250=



000
FTUS44 KOUN 131454 AAA
TAFOKC
TAF AMD
KOKC 131454Z 1315/1412 05008KT P6SM OVC020
     FM131800 07010KT P6SM SCT035 SCT250
     FM140000 15008KT P6SM SCT100 BKN250=



000
FTUS44 KOUN 131454 AAA
TAFOKC
TAF AMD
KOKC 131454Z 1315/1412 05008KT P6SM OVC020
     FM131800 07010KT P6SM SCT035 SCT250
     FM140000 15008KT P6SM SCT100 BKN250=



000
FTUS44 KOUN 131135
TAFOUN
TAF
KOUN 131135Z 1312/1412 04013KT P6SM OVC025
     FM131600 07009KT P6SM SCT035 SCT250
     FM140000 15005KT P6SM SCT100 BKN250=



000
FTUS44 KOUN 131135
TAFGAG
TAF
KGAG 131135Z 1312/1412 07008KT P6SM OVC025
     FM131500 15007KT P6SM SCT030 SCT250
     FM132100 17012KT P6SM SCT015 BKN250=



000
FTUS44 KOUN 131135
TAFOUN
TAF
KOUN 131135Z 1312/1412 04013KT P6SM OVC025
     FM131600 07009KT P6SM SCT035 SCT250
     FM140000 15005KT P6SM SCT100 BKN250=



000
FTUS44 KOUN 131135
TAFOKC
TAF
KOKC 131135Z 1312/1412 04013KT P6SM OVC028
     FM131500 07010KT P6SM SCT035 SCT250
     FM140000 15008KT P6SM SCT100 BKN250=



000
FTUS44 KOUN 131135
TAFHBR
TAF
KHBR 131135Z 1312/1412 05012KT P6SM OVC025
     FM131500 14008KT P6SM SCT035 BKN120
     FM132300 16010KT P6SM SCT025 BKN250=



000
FTUS44 KOUN 131135
TAFGAG
TAF
KGAG 131135Z 1312/1412 07008KT P6SM OVC025
     FM131500 15007KT P6SM SCT030 SCT250
     FM132100 17012KT P6SM SCT015 BKN250=



000
FTUS44 KOUN 131135
TAFWWR
TAF
KWWR 131135Z 1312/1412 07008KT P6SM OVC025
     FM131500 15007KT P6SM SCT030 SCT250
     FM132100 17012KT P6SM SCT015 BKN250=



000
FTUS44 KOUN 131135
TAFPNC
TAF
KPNC 131135Z 1312/1412 05011KT P6SM SCT030 SCT250
     FM132100 13008KT P6SM SCT250=



000
FTUS44 KOUN 131135
TAFWWR
TAF
KWWR 131135Z 1312/1412 07008KT P6SM OVC025
     FM131500 15007KT P6SM SCT030 SCT250
     FM132100 17012KT P6SM SCT015 BKN250=



000
FTUS44 KOUN 131135
TAFOKC
TAF
KOKC 131135Z 1312/1412 04013KT P6SM OVC028
     FM131500 07010KT P6SM SCT035 SCT250
     FM140000 15008KT P6SM SCT100 BKN250=



000
FTUS44 KOUN 131135
TAFSPS
TAF
KSPS 131135Z 1312/1412 02012KT P6SM OVC025
     FM131700 04008KT P6SM SCT035 BKN120
     FM140000 15009KT P6SM SCT050 BKN100=



000
FTUS44 KOUN 131135
TAFLAW
TAF
KLAW 131135Z 1312/1412 03013KT P6SM OVC025
     FM131600 12008KT P6SM SCT035 BKN120
     FM132300 15007KT P6SM SCT025 BKN250=



000
FTUS44 KOUN 131135
TAFSPS
TAF
KSPS 131135Z 1312/1412 02012KT P6SM OVC025
     FM131700 04008KT P6SM SCT035 BKN120
     FM140000 15009KT P6SM SCT050 BKN100=



000
FTUS44 KOUN 131135
TAFHBR
TAF
KHBR 131135Z 1312/1412 05012KT P6SM OVC025
     FM131500 14008KT P6SM SCT035 BKN120
     FM132300 16010KT P6SM SCT025 BKN250=



000
FTUS44 KOUN 131135
TAFPNC
TAF
KPNC 131135Z 1312/1412 05011KT P6SM SCT030 SCT250
     FM132100 13008KT P6SM SCT250=



000
FTUS44 KOUN 131135
TAFLAW
TAF
KLAW 131135Z 1312/1412 03013KT P6SM OVC025
     FM131600 12008KT P6SM SCT035 BKN120
     FM132300 15007KT P6SM SCT025 BKN250=



000
FTUS44 KOUN 130526
TAFGAG
TAF
KGAG 130526Z 1306/1406 02013KT P6SM OVC030
     FM131200 04005KT P6SM SCT030 BKN120
     FM131600 14009KT P6SM SCT040 SCT200
     FM132100 17012KT P6SM SCT250=



000
FTUS44 KOUN 130526
TAFWWR
TAF
KWWR 130526Z 1306/1406 02012KT P6SM OVC030
     FM131200 04005KT P6SM SCT030 BKN120
     FM131600 14009KT P6SM SCT040 SCT200
     FM132100 17012KT P6SM SCT250=



000
FTUS44 KOUN 130526
TAFOUN
TAF
KOUN 130526Z 1306/1406 01015G21KT P6SM OVC020
     FM130900 02013KT P6SM OVC030
     FM131500 04010KT P6SM BKN030
     FM131800 06008KT P6SM SCT040 SCT120
     FM140000 14008KT P6SM SCT150 SCT250=



000
FTUS44 KOUN 130526
TAFGAG
TAF
KGAG 130526Z 1306/1406 02013KT P6SM OVC030
     FM131200 04005KT P6SM SCT030 BKN120
     FM131600 14009KT P6SM SCT040 SCT200
     FM132100 17012KT P6SM SCT250=



000
FTUS44 KOUN 130526
TAFOKC
TAF
KOKC 130526Z 1306/1406 01015G21KT P6SM OVC020
     FM130900 02013KT P6SM OVC030
     FM131500 04010KT P6SM BKN030
     FM131800 06009KT P6SM SCT040 SCT120
     FM140000 14008KT P6SM SCT150 SCT250=



000
FTUS44 KOUN 130526
TAFWWR
TAF
KWWR 130526Z 1306/1406 02012KT P6SM OVC030
     FM131200 04005KT P6SM SCT030 BKN120
     FM131600 14009KT P6SM SCT040 SCT200
     FM132100 17012KT P6SM SCT250=



000
FTUS44 KOUN 130526
TAFLAW
TAF
KLAW 130526Z 1306/1406 02015G23KT P6SM OVC025
     FM130900 03013KT P6SM OVC030
     FM131600 04009KT P6SM BKN040
     FM131900 07008KT P6SM SCT050 BKN120
     FM132300 15009KT P6SM BKN150=



000
FTUS44 KOUN 130526
TAFHBR
TAF
KHBR 130526Z 1306/1406 03014G20KT P6SM OVC030
     FM130900 03010KT P6SM BKN030
     FM131500 05010KT P6SM BKN040
     FM131800 10008KT P6SM SCT040 SCT120
     FM132300 16010KT P6SM SCT150 SCT250=



000
FTUS44 KOUN 130526
TAFOKC
TAF
KOKC 130526Z 1306/1406 01015G21KT P6SM OVC020
     FM130900 02013KT P6SM OVC030
     FM131500 04010KT P6SM BKN030
     FM131800 06009KT P6SM SCT040 SCT120
     FM140000 14008KT P6SM SCT150 SCT250=



000
FTUS44 KOUN 130526
TAFOUN
TAF
KOUN 130526Z 1306/1406 01015G21KT P6SM OVC020
     FM130900 02013KT P6SM OVC030
     FM131500 04010KT P6SM BKN030
     FM131800 06008KT P6SM SCT040 SCT120
     FM140000 14008KT P6SM SCT150 SCT250=



000
FTUS44 KOUN 130526
TAFSPS
TAF
KSPS 130526Z 1306/1406 02014G20KT P6SM OVC030
     FM130900 02012KT P6SM OVC030
     FM131600 04008KT P6SM BKN040
     FM132300 15009KT P6SM SCT050 BKN150=



000
FTUS44 KOUN 130526
TAFPNC
TAF
KPNC 130526Z 1306/1406 03010KT P6SM OVC030
     FM131400 07011KT P6SM SCT040 SCT200
     FM132100 13008KT P6SM SCT250=



000
FTUS44 KOUN 130526
TAFPNC
TAF
KPNC 130526Z 1306/1406 03010KT P6SM OVC030
     FM131400 07011KT P6SM SCT040 SCT200
     FM132100 13008KT P6SM SCT250=



000
FTUS44 KOUN 130526
TAFHBR
TAF
KHBR 130526Z 1306/1406 03014G20KT P6SM OVC030
     FM130900 03010KT P6SM BKN030
     FM131500 05010KT P6SM BKN040
     FM131800 10008KT P6SM SCT040 SCT120
     FM132300 16010KT P6SM SCT150 SCT250=



000
FTUS44 KOUN 130526
TAFLAW
TAF
KLAW 130526Z 1306/1406 02015G23KT P6SM OVC025
     FM130900 03013KT P6SM OVC030
     FM131600 04009KT P6SM BKN040
     FM131900 07008KT P6SM SCT050 BKN120
     FM132300 15009KT P6SM BKN150=



000
FTUS44 KOUN 130526
TAFSPS
TAF
KSPS 130526Z 1306/1406 02014G20KT P6SM OVC030
     FM130900 02012KT P6SM OVC030
     FM131600 04008KT P6SM BKN040
     FM132300 15009KT P6SM SCT050 BKN150=



000
FTUS44 KOUN 122323
TAFWWR
TAF
KWWR 122323Z 1300/1324 02014KT P6SM OVC030
     FM130900 05005KT P6SM SCT030 BKN120
     FM131600 14009KT P6SM SCT050 SCT200=



000
FTUS44 KOUN 122323
TAFHBR
TAF
KHBR 122323Z 1300/1324 03016G23KT P6SM OVC030
     FM130400 03010KT P6SM BKN030
     FM131500 05010KT P6SM BKN040
     FM131900 10008KT P6SM SCT050 BKN100=



000
FTUS44 KOUN 122323
TAFOKC
TAF
KOKC 122323Z 1300/1324 01015G21KT P6SM OVC020
     FM130400 02013KT P6SM OVC030
     FM131500 04010KT P6SM BKN040
     FM131900 06008KT P6SM SCT040 BKN100=



000
FTUS44 KOUN 122323
TAFPNC
TAF
KPNC 122323Z 1300/1324 02011KT P6SM OVC020
     FM131500 07011KT P6SM SCT050 SCT200=



000
FTUS44 KOUN 122323
TAFGAG
TAF
KGAG 122323Z 1300/1324 02013KT P6SM OVC030
     FM130900 05005KT P6SM SCT030 BKN120
     FM131600 14009KT P6SM SCT050 SCT200=



000
FTUS44 KOUN 122323
TAFOUN
TAF
KOUN 122323Z 1300/1324 01015G21KT P6SM OVC020
     FM130400 02013KT P6SM OVC030
     FM131500 04010KT P6SM BKN040
     FM131900 06008KT P6SM SCT040 BKN100=



000
FTUS44 KOUN 122323
TAFHBR
TAF
KHBR 122323Z 1300/1324 03016G23KT P6SM OVC030
     FM130400 03010KT P6SM BKN030
     FM131500 05010KT P6SM BKN040
     FM131900 10008KT P6SM SCT050 BKN100=



000
FTUS44 KOUN 122323
TAFSPS
TAF
KSPS 122323Z 1300/1324 03015G22KT P6SM OVC020
      TEMPO 1300/1303 6SM -RA OVC015
     FM130300 02014G20KT P6SM OVC030
     FM130900 02012KT P6SM OVC030
     FM131700 04008KT P6SM BKN040=



000
FTUS44 KOUN 122323
TAFPNC
TAF
KPNC 122323Z 1300/1324 02011KT P6SM OVC020
     FM131500 07011KT P6SM SCT050 SCT200=



000
FTUS44 KOUN 122323
TAFOUN
TAF
KOUN 122323Z 1300/1324 01015G21KT P6SM OVC020
     FM130400 02013KT P6SM OVC030
     FM131500 04010KT P6SM BKN040
     FM131900 06008KT P6SM SCT040 BKN100=



000
FTUS44 KOUN 122323
TAFGAG
TAF
KGAG 122323Z 1300/1324 02013KT P6SM OVC030
     FM130900 05005KT P6SM SCT030 BKN120
     FM131600 14009KT P6SM SCT050 SCT200=



000
FTUS44 KOUN 122323
TAFSPS
TAF
KSPS 122323Z 1300/1324 03015G22KT P6SM OVC020
      TEMPO 1300/1303 6SM -RA OVC015
     FM130300 02014G20KT P6SM OVC030
     FM130900 02012KT P6SM OVC030
     FM131700 04008KT P6SM BKN040=



000
FTUS44 KOUN 122323
TAFWWR
TAF
KWWR 122323Z 1300/1324 02014KT P6SM OVC030
     FM130900 05005KT P6SM SCT030 BKN120
     FM131600 14009KT P6SM SCT050 SCT200=



000
FTUS44 KOUN 122323
TAFOKC
TAF
KOKC 122323Z 1300/1324 01015G21KT P6SM OVC020
     FM130400 02013KT P6SM OVC030
     FM131500 04010KT P6SM BKN040
     FM131900 06008KT P6SM SCT040 BKN100=



000
FTUS44 KOUN 122323
TAFLAW
TAF
KLAW 122323Z 1300/1324 02015G23KT P6SM OVC025
     FM130900 03013KT P6SM OVC030
     FM131600 04009KT P6SM BKN040
     FM132000 08008KT P6SM SCT050 BKN100=



000
FTUS44 KOUN 122323
TAFLAW
TAF
KLAW 122323Z 1300/1324 02015G23KT P6SM OVC025
     FM130900 03013KT P6SM OVC030
     FM131600 04009KT P6SM BKN040
     FM132000 08008KT P6SM SCT050 BKN100=



000
FTUS44 KOUN 121728
TAFGAG
TAF
KGAG 121728Z 1218/1318 36015KT P6SM OVC004
     FM122300 02012KT P6SM BKN040
     FM130100 03005KT P6SM SCT250=



000
FTUS44 KOUN 121728
TAFWWR
TAF
KWWR 121728Z 1218/1318 35016G21KT P6SM OVC005
     FM122100 02012KT P6SM BKN040
     FM130100 03005KT P6SM SCT250=



000
FTUS44 KOUN 121728
TAFHBR
TAF
KHBR 121728Z 1218/1318 04020KT P6SM -RA BKN015 OVC024
     FM121930 02022G32KT P6SM OVC015
     FM130000 04013KT P6SM BKN040
     FM131200 05008KT P6SM SCT250=



000
FTUS44 KOUN 121728
TAFOKC
TAF
KOKC 121728Z 1218/1318 02012G20KT 4SM -RA BR FEW010 OVC015
     FM122200 03017G24KT 6SM -DZ OVC015
     FM130000 03016G22KT P6SM BKN030
     FM130400 02013KT P6SM BKN040=



000
FTUS44 KOUN 121728
TAFOUN
TAF
KOUN 121728Z 1218/1318 36016G21KT P6SM -DZ OVC013
     FM122100 03014G22KT P6SM OVC015
     FM130400 02013KT P6SM BKN030=



000
FTUS44 KOUN 121728
TAFPNC
TAF
KPNC 121728Z 1218/1318 36012KT P6SM BKN030 OVC060
     FM122300 04010KT P6SM SCT025 BKN080=



000
FTUS44 KOUN 121728
TAFLAW
TAF
KLAW 121728Z 1218/1318 02018G26KT 6SM -RA BR FEW100 OVC110
      TEMPO 1219/1222 6SM -RA BR SCT009 OVC012
     FM122200 02014KT 6SM -DZ BKN040
     FM130000 03014G17KT P6SM BKN030=



000
FTUS44 KOUN 121728
TAFSPS
TAF
KSPS 121728Z 1218/1318 03020G26KT P6SM -RA BKN015 OVC018
     FM130000 02013KT P6SM BKN040=



000
FTUS44 KOUN 121728
TAFOKC
TAF
KOKC 121728Z 1218/1318 02012G20KT 4SM -RA BR FEW010 OVC015
     FM122200 03017G24KT 6SM -DZ OVC015
     FM130000 03016G22KT P6SM BKN030
     FM130400 02013KT P6SM BKN040=



000
FTUS44 KOUN 121728
TAFHBR
TAF
KHBR 121728Z 1218/1318 04020KT P6SM -RA BKN015 OVC024
     FM121930 02022G32KT P6SM OVC015
     FM130000 04013KT P6SM BKN040
     FM131200 05008KT P6SM SCT250=



000
FTUS44 KOUN 121728
TAFSPS
TAF
KSPS 121728Z 1218/1318 03020G26KT P6SM -RA BKN015 OVC018
     FM130000 02013KT P6SM BKN040=



000
FTUS44 KOUN 121728
TAFWWR
TAF
KWWR 121728Z 1218/1318 35016G21KT P6SM OVC005
     FM122100 02012KT P6SM BKN040
     FM130100 03005KT P6SM SCT250=



000
FTUS44 KOUN 121728
TAFGAG
TAF
KGAG 121728Z 1218/1318 36015KT P6SM OVC004
     FM122300 02012KT P6SM BKN040
     FM130100 03005KT P6SM SCT250=



000
FTUS44 KOUN 121728
TAFPNC
TAF
KPNC 121728Z 1218/1318 36012KT P6SM BKN030 OVC060
     FM122300 04010KT P6SM SCT025 BKN080=



000
FTUS44 KOUN 121728
TAFOUN
TAF
KOUN 121728Z 1218/1318 36016G21KT P6SM -DZ OVC013
     FM122100 03014G22KT P6SM OVC015
     FM130400 02013KT P6SM BKN030=



000
FTUS44 KOUN 121728
TAFLAW
TAF
KLAW 121728Z 1218/1318 02018G26KT 6SM -RA BR FEW100 OVC110
      TEMPO 1219/1222 6SM -RA BR SCT009 OVC012
     FM122200 02014KT 6SM -DZ BKN040
     FM130000 03014G17KT P6SM BKN030=



000
FTUS44 KOUN 121137
TAFOKC
TAF
KOKC 121137Z 1212/1312 36015G23KT 5SM -DZ BR OVC007
      TEMPO 1212/1216 3SM -RA BR OVC004
     FM122100 03017G24KT P6SM OVC015
     FM130000 02013KT P6SM BKN030=



000
FTUS44 KOUN 121137
TAFSPS
TAF
KSPS 121137Z 1212/1312 02014G20KT 6SM -DZ BR OVC008
      TEMPO 1212/1216 1SM -TSRA BR OVC005CB
     FM121800 02019G26KT P6SM OVC015
     FM130000 02013KT P6SM BKN040=



000
FTUS44 KOUN 121137
TAFPNC
TAF
KPNC 121137Z 1212/1312 36014KT 6SM -DZ BR OVC015
     FM121700 01014G19KT P6SM OVC025
     FM122300 04010KT P6SM SCT025 BKN080=



000
FTUS44 KOUN 121137
TAFGAG
TAF
KGAG 121137Z 1212/1312 02015G24KT 5SM -DZ BR OVC005
      TEMPO 1212/1215 3SM -RA BR
     FM121700 02015G24KT P6SM OVC015
     FM122100 02012KT P6SM BKN060
     FM130100 03005KT P6SM SCT250=



000
FTUS44 KOUN 121137
TAFOUN
TAF
KOUN 121137Z 1212/1312 36014G20KT 5SM -DZ BR OVC008
      TEMPO 1212/1216 3SM -RA BR OVC005
     FM122100 03014G22KT P6SM OVC015
     FM130000 02013KT P6SM BKN030=



000
FTUS44 KOUN 121137
TAFWWR
TAF
KWWR 121137Z 1212/1312 02015G24KT 5SM -DZ BR OVC005
      TEMPO 1212/1215 3SM -RA BR
     FM121700 02015G24KT P6SM OVC015
     FM122100 02012KT P6SM BKN060
     FM130100 03005KT P6SM SCT250=



000
FTUS44 KOUN 121137
TAFOUN
TAF
KOUN 121137Z 1212/1312 36014G20KT 5SM -DZ BR OVC008
      TEMPO 1212/1216 3SM -RA BR OVC005
     FM122100 03014G22KT P6SM OVC015
     FM130000 02013KT P6SM BKN030=



000
FTUS44 KOUN 121137
TAFGAG
TAF
KGAG 121137Z 1212/1312 02015G24KT 5SM -DZ BR OVC005
      TEMPO 1212/1215 3SM -RA BR
     FM121700 02015G24KT P6SM OVC015
     FM122100 02012KT P6SM BKN060
     FM130100 03005KT P6SM SCT250=



000
FTUS44 KOUN 121137
TAFPNC
TAF
KPNC 121137Z 1212/1312 36014KT 6SM -DZ BR OVC015
     FM121700 01014G19KT P6SM OVC025
     FM122300 04010KT P6SM SCT025 BKN080=



000
FTUS44 KOUN 121137
TAFLAW
TAF
KLAW 121137Z 1212/1312 02014G20KT 6SM -DZ BR OVC008
      TEMPO 1213/1217 2SM -RA BR OVC005
     FM121900 02018G26KT P6SM OVC015
     FM130000 02014KT P6SM BKN040=



000
FTUS44 KOUN 121137
TAFOKC
TAF
KOKC 121137Z 1212/1312 36015G23KT 5SM -DZ BR OVC007
      TEMPO 1212/1216 3SM -RA BR OVC004
     FM122100 03017G24KT P6SM OVC015
     FM130000 02013KT P6SM BKN030=



000
FTUS44 KOUN 121137
TAFHBR
TAF
KHBR 121137Z 1212/1312 03020G30KT 6SM -DZ BR OVC009
      TEMPO 1212/1216 3SM -RA BR OVC005
     FM121900 02022G32KT P6SM OVC015
     FM122200 04013KT P6SM BKN040=



000
FTUS44 KOUN 121137
TAFLAW
TAF
KLAW 121137Z 1212/1312 02014G20KT 6SM -DZ BR OVC008
      TEMPO 1213/1217 2SM -RA BR OVC005
     FM121900 02018G26KT P6SM OVC015
     FM130000 02014KT P6SM BKN040=



000
FTUS44 KOUN 121137
TAFSPS
TAF
KSPS 121137Z 1212/1312 02014G20KT 6SM -DZ BR OVC008
      TEMPO 1212/1216 1SM -TSRA BR OVC005CB
     FM121800 02019G26KT P6SM OVC015
     FM130000 02013KT P6SM BKN040=



000
FTUS44 KOUN 121137
TAFWWR
TAF
KWWR 121137Z 1212/1312 02015G24KT 5SM -DZ BR OVC005
      TEMPO 1212/1215 3SM -RA BR
     FM121700 02015G24KT P6SM OVC015
     FM122100 02012KT P6SM BKN060
     FM130100 03005KT P6SM SCT250=



000
FTUS44 KOUN 121137
TAFHBR
TAF
KHBR 121137Z 1212/1312 03020G30KT 6SM -DZ BR OVC009
      TEMPO 1212/1216 3SM -RA BR OVC005
     FM121900 02022G32KT P6SM OVC015
     FM122200 04013KT P6SM BKN040=



000
FTUS44 KOUN 121001 AAA
TAFHBR
TAF AMD
KHBR 121001Z 1210/1306 06011KT P6SM BKN007 OVC015
      TEMPO 1212/1216 3SM -SHRA BR OVC005
     FM122300 01014KT P6SM OVC020=



000
FTUS44 KOUN 121001 AAA
TAFHBR
TAF AMD
KHBR 121001Z 1210/1306 06011KT P6SM BKN007 OVC015
      TEMPO 1212/1216 3SM -SHRA BR OVC005
     FM122300 01014KT P6SM OVC020=



000
FTUS44 KOUN 120953 AAA
TAFSPS
TAF AMD
KSPS 120953Z 1210/1306 04010KT 5SM BR OVC010
      TEMPO 1210/1214 3SM SHRA
     FM121400 02015G20KT 4SM -RA BR OVC006
     FM130100 02012KT P6SM OVC012=



000
FTUS44 KOUN 120953 AAA
TAFSPS
TAF AMD
KSPS 120953Z 1210/1306 04010KT 5SM BR OVC010
      TEMPO 1210/1214 3SM SHRA
     FM121400 02015G20KT 4SM -RA BR OVC006
     FM130100 02012KT P6SM OVC012=



000
FTUS44 KOUN 120523
TAFWWR
TAF
KWWR 120523Z 1206/1306 05008KT P6SM BKN025
     FM121200 36012G16KT 4SM -DZ BR OVC006
     FM122000 01014G18KT P6SM OVC020
     FM130000 02009KT P6SM SCT025 BKN080=



000
FTUS44 KOUN 120523
TAFLAW
TAF
KLAW 120523Z 1206/1306 06011KT P6SM BKN025 OVC070
     FM120900 02010KT 6SM -DZ BR OVC010
     FM121600 02015G19KT 4SM -RA BR OVC006
     FM130100 02012KT P6SM OVC012=



000
FTUS44 KOUN 120523
TAFOUN
TAF
KOUN 120523Z 1206/1306 04012KT P6SM OVC015
     FM121000 01014G18KT 5SM -DZ BR OVC008
      TEMPO 1216/1220 3SM -RA BR OVC004
     FM122200 01014KT P6SM BKN015=



000
FTUS44 KOUN 120523
TAFGAG
TAF
KGAG 120523Z 1206/1306 06008KT P6SM BKN025
     FM121200 36012G17KT 4SM -DZ BR OVC006
     FM122000 01014G18KT P6SM OVC020
     FM130000 02009KT P6SM SCT025 BKN080=



000
FTUS44 KOUN 120523
TAFSPS
TAF
KSPS 120523Z 1206/1306 07009KT P6SM BKN025 OVC060
     FM120900 02010KT 6SM -DZ BR OVC010
     FM121500 02015G20KT 4SM -RA BR OVC006
     FM130100 02012KT P6SM OVC012=



000
FTUS44 KOUN 120523
TAFOKC
TAF
KOKC 120523Z 1206/1306 04012KT P6SM OVC015
     FM121000 01014G18KT 5SM -DZ BR OVC008
      TEMPO 1216/1220 3SM -RA BR OVC004
     FM122200 01014KT P6SM BKN015=



000
FTUS44 KOUN 120523
TAFPNC
TAF
KPNC 120523Z 1206/1306 05011KT P6SM BKN015
     FM121400 36012G16KT P6SM OVC008
     FM122100 36013G17KT P6SM OVC015
     FM130100 36008KT P6SM SCT025 BKN080=



000
FTUS44 KOUN 120523
TAFHBR
TAF
KHBR 120523Z 1206/1306 06011KT P6SM BKN025 OVC080
     FM121400 02013G17KT 5SM -DZ BR OVC008
      TEMPO 1216/1220 3SM -RA BR OVC004
     FM122300 01014KT P6SM OVC020=



000
FTUS44 KOUN 120523
TAFHBR
TAF
KHBR 120523Z 1206/1306 06011KT P6SM BKN025 OVC080
     FM121400 02013G17KT 5SM -DZ BR OVC008
      TEMPO 1216/1220 3SM -RA BR OVC004
     FM122300 01014KT P6SM OVC020=



000
FTUS44 KOUN 120523
TAFWWR
TAF
KWWR 120523Z 1206/1306 05008KT P6SM BKN025
     FM121200 36012G16KT 4SM -DZ BR OVC006
     FM122000 01014G18KT P6SM OVC020
     FM130000 02009KT P6SM SCT025 BKN080=



000
FTUS44 KOUN 120523
TAFLAW
TAF
KLAW 120523Z 1206/1306 06011KT P6SM BKN025 OVC070
     FM120900 02010KT 6SM -DZ BR OVC010
     FM121600 02015G19KT 4SM -RA BR OVC006
     FM130100 02012KT P6SM OVC012=



000
FTUS44 KOUN 120523
TAFOKC
TAF
KOKC 120523Z 1206/1306 04012KT P6SM OVC015
     FM121000 01014G18KT 5SM -DZ BR OVC008
      TEMPO 1216/1220 3SM -RA BR OVC004
     FM122200 01014KT P6SM BKN015=



000
FTUS44 KOUN 120523
TAFGAG
TAF
KGAG 120523Z 1206/1306 06008KT P6SM BKN025
     FM121200 36012G17KT 4SM -DZ BR OVC006
     FM122000 01014G18KT P6SM OVC020
     FM130000 02009KT P6SM SCT025 BKN080=



000
FTUS44 KOUN 120523
TAFPNC
TAF
KPNC 120523Z 1206/1306 05011KT P6SM BKN015
     FM121400 36012G16KT P6SM OVC008
     FM122100 36013G17KT P6SM OVC015
     FM130100 36008KT P6SM SCT025 BKN080=



000
FTUS44 KOUN 120523
TAFSPS
TAF
KSPS 120523Z 1206/1306 07009KT P6SM BKN025 OVC060
     FM120900 02010KT 6SM -DZ BR OVC010
     FM121500 02015G20KT 4SM -RA BR OVC006
     FM130100 02012KT P6SM OVC012=



000
FTUS44 KOUN 120523
TAFOUN
TAF
KOUN 120523Z 1206/1306 04012KT P6SM OVC015
     FM121000 01014G18KT 5SM -DZ BR OVC008
      TEMPO 1216/1220 3SM -RA BR OVC004
     FM122200 01014KT P6SM BKN015=



    US Dept of Commerce
    National Oceanic and Atmospheric Administration
    National Weather Service
    1325 East West Highway
    Silver Spring, MD 20910
    Page Author: NWS Internet Services Team
Disclaimer
Information Quality
Credits
Glossary
Privacy Policy
Freedom of Information Act (FOIA)
About Us
Career Opportunities